sensor_id;sensor_type;location;lat;lon;timestamp;P1;durP1;ratioP1;P2;durP2;ratioP2
40793;SDS011;26502;51.886;15.604;2023-05-07T00:01:35;11.90;;;9.30;;
40793;SDS011;26502;51.886;15.604;2023-05-07T00:06:42;13.20;;;9.80;;
40793;SDS011;26502;51.886;15.604;2023-05-07T00:11:48;10.40;;;8.50;;
40793;SDS011;26502;51.886;15.604;2023-05-07T00:16:55;11.00;;;8.90;;
40793;SDS011;26502;51.886;15.604;2023-05-07T00:22:01;9.90;;;8.80;;
40793;SDS011;26502;51.886;15.604;2023-05-07T00:27:08;12.80;;;9.50;;
40793;SDS011;26502;51.886;15.604;2023-05-07T00:32:14;11.30;;;9.10;;
40793;SDS011;26502;51.886;15.604;2023-05-07T00:37:19;11.90;;;8.60;;
40793;SDS011;26502;51.886;15.604;2023-05-07T00:42:26;12.80;;;9.20;;
40793;SDS011;26502;51.886;15.604;2023-05-07T00:47:32;12.30;;;9.60;;
40793;SDS011;26502;51.886;15.604;2023-05-07T00:52:38;15.10;;;9.90;;
40793;SDS011;26502;51.886;15.604;2023-05-07T00:57:45;12.60;;;10.00;;
40793;SDS011;26502;51.886;15.604;2023-05-07T01:02:51;11.80;;;9.20;;
40793;SDS011;26502;51.886;15.604;2023-05-07T01:07:57;10.70;;;9.30;;
40793;SDS011;26502;51.886;15.604;2023-05-07T01:13:03;11.10;;;9.40;;
40793;SDS011;26502;51.886;15.604;2023-05-07T01:18:10;14.20;;;9.20;;
40793;SDS011;26502;51.886;15.604;2023-05-07T01:23:16;13.90;;;9.00;;
40793;SDS011;26502;51.886;15.604;2023-05-07T01:28:22;12.10;;;9.30;;
40793;SDS011;26502;51.886;15.604;2023-05-07T01:33:31;12.70;;;10.40;;
40793;SDS011;26502;51.886;15.604;2023-05-07T01:38:38;11.40;;;9.50;;
40793;SDS011;26502;51.886;15.604;2023-05-07T01:43:46;12.80;;;9.70;;
40793;SDS011;26502;51.886;15.604;2023-05-07T01:48:54;9.90;;;8.70;;
40793;SDS011;26502;51.886;15.604;2023-05-07T01:54:00;10.60;;;9.30;;
40793;SDS011;26502;51.886;15.604;2023-05-07T01:59:06;10.70;;;8.40;;
40793;SDS011;26502;51.886;15.604;2023-05-07T02:04:12;11.60;;;8.80;;
40793;SDS011;26502;51.886;15.604;2023-05-07T02:09:18;14.30;;;9.30;;
40793;SDS011;26502;51.886;15.604;2023-05-07T02:14:26;16.50;;;8.80;;
40793;SDS011;26502;51.886;15.604;2023-05-07T02:19:33;11.10;;;9.00;;
40793;SDS011;26502;51.886;15.604;2023-05-07T02:24:39;13.60;;;9.30;;
40793;SDS011;26502;51.886;15.604;2023-05-07T02:29:46;9.00;;;8.10;;
40793;SDS011;26502;51.886;15.604;2023-05-07T02:34:52;12.70;;;8.70;;
40793;SDS011;26502;51.886;15.604;2023-05-07T02:39:58;10.90;;;9.00;;
40793;SDS011;26502;51.886;15.604;2023-05-07T02:45:05;10.60;;;8.90;;
40793;SDS011;26502;51.886;15.604;2023-05-07T02:50:13;10.80;;;8.10;;
40793;SDS011;26502;51.886;15.604;2023-05-07T02:55:19;9.70;;;8.30;;
40793;SDS011;26502;51.886;15.604;2023-05-07T03:00:26;11.90;;;8.90;;
40793;SDS011;26502;51.886;15.604;2023-05-07T03:05:52;11.80;;;8.10;;
40793;SDS011;26502;51.886;15.604;2023-05-07T03:10:58;10.90;;;9.00;;
40793;SDS011;26502;51.886;15.604;2023-05-07T03:16:05;9.70;;;8.10;;
40793;SDS011;26502;51.886;15.604;2023-05-07T03:21:12;13.70;;;8.00;;
40793;SDS011;26502;51.886;15.604;2023-05-07T03:26:18;11.30;;;8.60;;
40793;SDS011;26502;51.886;15.604;2023-05-07T03:31:25;9.60;;;8.60;;
40793;SDS011;26502;51.886;15.604;2023-05-07T03:36:31;14.00;;;9.10;;
40793;SDS011;26502;51.886;15.604;2023-05-07T03:41:37;12.40;;;8.40;;
40793;SDS011;26502;51.886;15.604;2023-05-07T03:46:43;12.50;;;9.10;;
40793;SDS011;26502;51.886;15.604;2023-05-07T03:51:49;12.80;;;8.30;;
40793;SDS011;26502;51.886;15.604;2023-05-07T03:56:56;13.30;;;8.90;;
40793;SDS011;26502;51.886;15.604;2023-05-07T04:02:02;9.80;;;7.90;;
40793;SDS011;26502;51.886;15.604;2023-05-07T04:07:09;9.50;;;7.70;;
40793;SDS011;26502;51.886;15.604;2023-05-07T04:12:17;11.20;;;8.60;;
40793;SDS011;26502;51.886;15.604;2023-05-07T04:17:25;15.00;;;8.10;;
40793;SDS011;26502;51.886;15.604;2023-05-07T04:22:31;9.50;;;7.70;;
40793;SDS011;26502;51.886;15.604;2023-05-07T04:27:39;11.30;;;7.80;;
40793;SDS011;26502;51.886;15.604;2023-05-07T04:32:45;11.20;;;7.60;;
40793;SDS011;26502;51.886;15.604;2023-05-07T04:37:52;13.00;;;7.70;;
40793;SDS011;26502;51.886;15.604;2023-05-07T04:42:58;12.30;;;7.70;;
40793;SDS011;26502;51.886;15.604;2023-05-07T04:48:05;8.70;;;7.30;;
40793;SDS011;26502;51.886;15.604;2023-05-07T04:58:19;9.50;;;6.90;;
40793;SDS011;26502;51.886;15.604;2023-05-07T05:03:25;10.00;;;6.70;;
40793;SDS011;26502;51.886;15.604;2023-05-07T05:08:31;10.10;;;7.50;;
40793;SDS011;26502;51.886;15.604;2023-05-07T05:13:39;10.40;;;7.80;;
40793;SDS011;26502;51.886;15.604;2023-05-07T05:18:52;11.40;;;7.60;;
40793;SDS011;26502;51.886;15.604;2023-05-07T05:23:59;8.40;;;7.10;;
40793;SDS011;26502;51.886;15.604;2023-05-07T05:29:05;8.20;;;6.40;;
40793;SDS011;26502;51.886;15.604;2023-05-07T05:34:12;10.60;;;7.80;;
40793;SDS011;26502;51.886;15.604;2023-05-07T05:39:19;10.40;;;7.60;;
40793;SDS011;26502;51.886;15.604;2023-05-07T05:44:26;9.20;;;7.20;;
40793;SDS011;26502;51.886;15.604;2023-05-07T05:49:32;11.60;;;8.00;;
40793;SDS011;26502;51.886;15.604;2023-05-07T05:54:40;12.70;;;7.50;;
40793;SDS011;26502;51.886;15.604;2023-05-07T05:59:46;7.80;;;7.00;;
40793;SDS011;26502;51.886;15.604;2023-05-07T06:04:52;11.00;;;8.10;;
40793;SDS011;26502;51.886;15.604;2023-05-07T06:09:59;14.90;;;8.80;;
40793;SDS011;26502;51.886;15.604;2023-05-07T06:15:06;9.20;;;7.30;;
40793;SDS011;26502;51.886;15.604;2023-05-07T06:20:15;8.80;;;7.20;;
40793;SDS011;26502;51.886;15.604;2023-05-07T06:25:21;9.50;;;7.00;;
40793;SDS011;26502;51.886;15.604;2023-05-07T06:30:27;8.60;;;7.00;;
40793;SDS011;26502;51.886;15.604;2023-05-07T06:35:34;13.60;;;7.30;;
40793;SDS011;26502;51.886;15.604;2023-05-07T06:40:40;8.30;;;6.50;;
40793;SDS011;26502;51.886;15.604;2023-05-07T06:45:46;8.60;;;6.50;;
40793;SDS011;26502;51.886;15.604;2023-05-07T06:50:52;10.60;;;6.80;;
40793;SDS011;26502;51.886;15.604;2023-05-07T06:56:01;7.40;;;6.30;;
40793;SDS011;26502;51.886;15.604;2023-05-07T07:01:07;9.50;;;6.60;;
40793;SDS011;26502;51.886;15.604;2023-05-07T07:06:14;7.90;;;6.40;;
40793;SDS011;26502;51.886;15.604;2023-05-07T07:11:20;7.10;;;5.70;;
40793;SDS011;26502;51.886;15.604;2023-05-07T07:16:26;8.20;;;6.90;;
40793;SDS011;26502;51.886;15.604;2023-05-07T07:21:32;7.30;;;6.40;;
40793;SDS011;26502;51.886;15.604;2023-05-07T07:26:38;6.40;;;5.80;;
40793;SDS011;26502;51.886;15.604;2023-05-07T07:31:47;9.10;;;5.70;;
40793;SDS011;26502;51.886;15.604;2023-05-07T07:36:54;6.00;;;5.20;;
40793;SDS011;26502;51.886;15.604;2023-05-07T07:42:00;8.50;;;5.80;;
40793;SDS011;26502;51.886;15.604;2023-05-07T07:47:07;11.40;;;5.40;;
40793;SDS011;26502;51.886;15.604;2023-05-07T07:52:13;7.50;;;5.60;;
40793;SDS011;26502;51.886;15.604;2023-05-07T07:57:20;6.00;;;5.30;;
40793;SDS011;26502;51.886;15.604;2023-05-07T08:02:26;5.70;;;5.00;;
40793;SDS011;26502;51.886;15.604;2023-05-07T08:07:33;5.60;;;5.10;;
40793;SDS011;26502;51.886;15.604;2023-05-07T08:12:39;8.20;;;4.70;;
40793;SDS011;26502;51.886;15.604;2023-05-07T08:17:45;6.60;;;4.90;;
40793;SDS011;26502;51.886;15.604;2023-05-07T08:22:52;7.80;;;4.50;;
40793;SDS011;26502;51.886;15.604;2023-05-07T08:27:58;5.90;;;4.60;;
40793;SDS011;26502;51.886;15.604;2023-05-07T08:33:06;5.70;;;4.30;;
40793;SDS011;26502;51.886;15.604;2023-05-07T08:38:14;5.50;;;4.50;;
40793;SDS011;26502;51.886;15.604;2023-05-07T08:43:21;5.50;;;4.60;;
40793;SDS011;26502;51.886;15.604;2023-05-07T08:48:30;7.80;;;4.80;;
40793;SDS011;26502;51.886;15.604;2023-05-07T08:53:43;6.60;;;4.90;;
40793;SDS011;26502;51.886;15.604;2023-05-07T08:58:52;5.20;;;4.40;;
40793;SDS011;26502;51.886;15.604;2023-05-07T09:04:00;6.60;;;4.90;;
40793;SDS011;26502;51.886;15.604;2023-05-07T09:09:06;6.50;;;4.70;;
40793;SDS011;26502;51.886;15.604;2023-05-07T09:14:12;5.00;;;4.30;;
40793;SDS011;26502;51.886;15.604;2023-05-07T09:19:23;4.60;;;4.10;;
40793;SDS011;26502;51.886;15.604;2023-05-07T09:24:30;5.30;;;3.50;;
40793;SDS011;26502;51.886;15.604;2023-05-07T09:29:39;3.80;;;3.20;;
40793;SDS011;26502;51.886;15.604;2023-05-07T09:34:46;3.70;;;3.30;;
40793;SDS011;26502;51.886;15.604;2023-05-07T09:39:54;3.80;;;3.50;;
40793;SDS011;26502;51.886;15.604;2023-05-07T09:45:00;6.90;;;2.70;;
40793;SDS011;26502;51.886;15.604;2023-05-07T09:50:12;2.60;;;2.40;;
40793;SDS011;26502;51.886;15.604;2023-05-07T09:55:19;4.00;;;2.40;;
40793;SDS011;26502;51.886;15.604;2023-05-07T10:00:26;3.00;;;2.60;;
40793;SDS011;26502;51.886;15.604;2023-05-07T10:05:37;3.90;;;2.30;;
40793;SDS011;26502;51.886;15.604;2023-05-07T10:10:45;3.10;;;2.50;;
40793;SDS011;26502;51.886;15.604;2023-05-07T10:15:56;3.20;;;2.90;;
40793;SDS011;26502;51.886;15.604;2023-05-07T10:21:07;3.20;;;2.80;;
40793;SDS011;26502;51.886;15.604;2023-05-07T10:26:16;4.00;;;2.60;;
40793;SDS011;26502;51.886;15.604;2023-05-07T10:31:30;2.60;;;2.20;;
40793;SDS011;26502;51.886;15.604;2023-05-07T10:36:47;4.40;;;2.50;;
40793;SDS011;26502;51.886;15.604;2023-05-07T10:41:55;2.90;;;2.70;;
40793;SDS011;26502;51.886;15.604;2023-05-07T10:47:11;2.70;;;2.50;;
40793;SDS011;26502;51.886;15.604;2023-05-07T10:52:22;2.60;;;2.40;;
40793;SDS011;26502;51.886;15.604;2023-05-07T10:57:44;2.50;;;2.30;;
40793;SDS011;26502;51.886;15.604;2023-05-07T11:08:29;7.20;;;3.00;;
40793;SDS011;26502;51.886;15.604;2023-05-07T11:14:06;3.10;;;2.60;;
40793;SDS011;26502;51.886;15.604;2023-05-07T11:24:55;3.20;;;2.70;;
40793;SDS011;26502;51.886;15.604;2023-05-07T11:30:01;3.40;;;2.30;;
40793;SDS011;26502;51.886;15.604;2023-05-07T11:35:08;4.30;;;2.50;;
40793;SDS011;26502;51.886;15.604;2023-05-07T11:40:15;4.80;;;2.40;;
40793;SDS011;26502;51.886;15.604;2023-05-07T11:45:23;2.80;;;2.00;;
40793;SDS011;26502;51.886;15.604;2023-05-07T11:50:29;5.80;;;2.30;;
40793;SDS011;26502;51.886;15.604;2023-05-07T11:55:35;3.30;;;2.20;;
40793;SDS011;26502;51.886;15.604;2023-05-07T12:00:49;2.80;;;2.20;;
40793;SDS011;26502;51.886;15.604;2023-05-07T12:05:55;3.00;;;2.10;;
40793;SDS011;26502;51.886;15.604;2023-05-07T12:11:00;4.30;;;1.90;;
40793;SDS011;26502;51.886;15.604;2023-05-07T12:16:07;2.30;;;2.00;;
40793;SDS011;26502;51.886;15.604;2023-05-07T12:21:13;2.50;;;1.80;;
40793;SDS011;26502;51.886;15.604;2023-05-07T12:26:20;1.90;;;1.80;;
40793;SDS011;26502;51.886;15.604;2023-05-07T12:31:28;3.30;;;2.00;;
40793;SDS011;26502;51.886;15.604;2023-05-07T12:36:37;3.30;;;1.90;;
40793;SDS011;26502;51.886;15.604;2023-05-07T12:41:53;3.40;;;1.80;;
40793;SDS011;26502;51.886;15.604;2023-05-07T12:47:02;1.70;;;1.60;;
40793;SDS011;26502;51.886;15.604;2023-05-07T12:52:08;3.40;;;1.90;;
40793;SDS011;26502;51.886;15.604;2023-05-07T12:57:15;1.70;;;1.60;;
40793;SDS011;26502;51.886;15.604;2023-05-07T13:02:33;2.30;;;2.10;;
40793;SDS011;26502;51.886;15.604;2023-05-07T13:07:41;4.80;;;1.90;;
40793;SDS011;26502;51.886;15.604;2023-05-07T13:12:58;2.10;;;1.60;;
40793;SDS011;26502;51.886;15.604;2023-05-07T13:18:04;3.30;;;1.50;;
40793;SDS011;26502;51.886;15.604;2023-05-07T13:23:10;1.80;;;1.60;;
40793;SDS011;26502;51.886;15.604;2023-05-07T13:28:16;1.60;;;1.50;;
40793;SDS011;26502;51.886;15.604;2023-05-07T13:33:23;1.60;;;1.50;;
40793;SDS011;26502;51.886;15.604;2023-05-07T13:38:29;2.30;;;2.00;;
40793;SDS011;26502;51.886;15.604;2023-05-07T13:43:34;1.90;;;1.70;;
40793;SDS011;26502;51.886;15.604;2023-05-07T13:48:40;1.50;;;1.40;;
40793;SDS011;26502;51.886;15.604;2023-05-07T13:53:46;1.50;;;1.40;;
40793;SDS011;26502;51.886;15.604;2023-05-07T13:58:52;5.10;;;1.70;;
40793;SDS011;26502;51.886;15.604;2023-05-07T14:03:58;2.00;;;1.60;;
40793;SDS011;26502;51.886;15.604;2023-05-07T14:09:04;2.60;;;1.70;;
40793;SDS011;26502;51.886;15.604;2023-05-07T14:14:10;2.10;;;1.60;;
40793;SDS011;26502;51.886;15.604;2023-05-07T14:19:16;1.70;;;1.60;;
40793;SDS011;26502;51.886;15.604;2023-05-07T14:24:23;2.00;;;1.80;;
40793;SDS011;26502;51.886;15.604;2023-05-07T14:29:30;3.10;;;1.50;;
40793;SDS011;26502;51.886;15.604;2023-05-07T14:34:38;2.30;;;2.00;;
40793;SDS011;26502;51.886;15.604;2023-05-07T14:39:44;2.70;;;1.80;;
40793;SDS011;26502;51.886;15.604;2023-05-07T14:44:50;2.00;;;1.80;;
40793;SDS011;26502;51.886;15.604;2023-05-07T14:49:56;3.30;;;2.00;;
40793;SDS011;26502;51.886;15.604;2023-05-07T14:55:05;3.30;;;2.30;;
40793;SDS011;26502;51.886;15.604;2023-05-07T15:00:12;2.40;;;2.10;;
40793;SDS011;26502;51.886;15.604;2023-05-07T15:05:18;3.80;;;1.90;;
40793;SDS011;26502;51.886;15.604;2023-05-07T15:10:24;2.40;;;2.20;;
40793;SDS011;26502;51.886;15.604;2023-05-07T15:15:30;2.20;;;1.90;;
40793;SDS011;26502;51.886;15.604;2023-05-07T15:20:37;3.90;;;2.60;;
40793;SDS011;26502;51.886;15.604;2023-05-07T15:25:43;3.50;;;2.20;;
40793;SDS011;26502;51.886;15.604;2023-05-07T15:30:49;5.30;;;2.20;;
40793;SDS011;26502;51.886;15.604;2023-05-07T15:35:55;2.80;;;2.10;;
40793;SDS011;26502;51.886;15.604;2023-05-07T15:41:02;3.60;;;2.70;;
40793;SDS011;26502;51.886;15.604;2023-05-07T15:46:08;7.20;;;2.50;;
40793;SDS011;26502;51.886;15.604;2023-05-07T15:51:14;3.10;;;2.10;;
40793;SDS011;26502;51.886;15.604;2023-05-07T15:56:20;4.90;;;3.70;;
40793;SDS011;26502;51.886;15.604;2023-05-07T16:01:27;2.30;;;2.10;;
40793;SDS011;26502;51.886;15.604;2023-05-07T16:06:33;4.50;;;2.80;;
40793;SDS011;26502;51.886;15.604;2023-05-07T16:11:39;3.20;;;2.30;;
40793;SDS011;26502;51.886;15.604;2023-05-07T16:16:45;2.80;;;2.50;;
40793;SDS011;26502;51.886;15.604;2023-05-07T16:21:51;3.20;;;2.20;;
40793;SDS011;26502;51.886;15.604;2023-05-07T16:26:58;3.10;;;2.60;;
40793;SDS011;26502;51.886;15.604;2023-05-07T16:32:04;2.20;;;1.90;;
40793;SDS011;26502;51.886;15.604;2023-05-07T16:37:10;4.50;;;4.10;;
40793;SDS011;26502;51.886;15.604;2023-05-07T16:42:16;6.50;;;2.50;;
40793;SDS011;26502;51.886;15.604;2023-05-07T16:47:22;3.90;;;2.40;;
40793;SDS011;26502;51.886;15.604;2023-05-07T16:52:29;3.20;;;2.50;;
40793;SDS011;26502;51.886;15.604;2023-05-07T16:57:35;3.00;;;2.50;;
40793;SDS011;26502;51.886;15.604;2023-05-07T17:02:40;13.10;;;9.80;;
40793;SDS011;26502;51.886;15.604;2023-05-07T17:07:47;4.20;;;2.90;;
40793;SDS011;26502;51.886;15.604;2023-05-07T17:12:53;3.70;;;3.40;;
40793;SDS011;26502;51.886;15.604;2023-05-07T17:17:59;34.30;;;16.60;;
40793;SDS011;26502;51.886;15.604;2023-05-07T17:23:05;6.90;;;4.10;;
40793;SDS011;26502;51.886;15.604;2023-05-07T17:28:11;10.10;;;5.70;;
40793;SDS011;26502;51.886;15.604;2023-05-07T17:33:18;3.30;;;3.00;;
40793;SDS011;26502;51.886;15.604;2023-05-07T17:38:23;4.50;;;2.70;;
40793;SDS011;26502;51.886;15.604;2023-05-07T17:43:30;4.90;;;2.90;;
40793;SDS011;26502;51.886;15.604;2023-05-07T17:48:35;2.90;;;2.60;;
40793;SDS011;26502;51.886;15.604;2023-05-07T17:53:41;3.50;;;2.70;;
40793;SDS011;26502;51.886;15.604;2023-05-07T17:58:47;7.10;;;3.40;;
40793;SDS011;26502;51.886;15.604;2023-05-07T18:03:53;3.70;;;3.30;;
40793;SDS011;26502;51.886;15.604;2023-05-07T18:08:59;5.40;;;2.90;;
40793;SDS011;26502;51.886;15.604;2023-05-07T18:14:05;8.00;;;3.10;;
40793;SDS011;26502;51.886;15.604;2023-05-07T18:19:11;6.20;;;3.00;;
40793;SDS011;26502;51.886;15.604;2023-05-07T18:24:17;3.50;;;3.20;;
40793;SDS011;26502;51.886;15.604;2023-05-07T18:29:23;3.90;;;3.20;;
40793;SDS011;26502;51.886;15.604;2023-05-07T18:34:29;3.30;;;3.00;;
40793;SDS011;26502;51.886;15.604;2023-05-07T18:39:35;4.30;;;3.30;;
40793;SDS011;26502;51.886;15.604;2023-05-07T18:44:41;4.70;;;3.40;;
40793;SDS011;26502;51.886;15.604;2023-05-07T18:49:47;4.20;;;3.20;;
40793;SDS011;26502;51.886;15.604;2023-05-07T18:54:53;3.60;;;2.80;;
40793;SDS011;26502;51.886;15.604;2023-05-07T18:59:59;4.00;;;3.20;;
40793;SDS011;26502;51.886;15.604;2023-05-07T19:05:08;4.00;;;3.30;;
40793;SDS011;26502;51.886;15.604;2023-05-07T19:10:14;3.10;;;2.80;;
40793;SDS011;26502;51.886;15.604;2023-05-07T19:15:21;5.20;;;3.40;;
40793;SDS011;26502;51.886;15.604;2023-05-07T19:20:27;3.90;;;3.10;;
40793;SDS011;26502;51.886;15.604;2023-05-07T19:25:33;4.40;;;3.40;;
40793;SDS011;26502;51.886;15.604;2023-05-07T19:30:39;4.30;;;3.60;;
40793;SDS011;26502;51.886;15.604;2023-05-07T19:35:45;5.40;;;3.30;;
40793;SDS011;26502;51.886;15.604;2023-05-07T19:40:51;4.20;;;3.40;;
40793;SDS011;26502;51.886;15.604;2023-05-07T19:45:57;3.40;;;3.10;;
40793;SDS011;26502;51.886;15.604;2023-05-07T19:51:04;5.70;;;3.00;;
40793;SDS011;26502;51.886;15.604;2023-05-07T19:56:10;3.60;;;3.30;;
40793;SDS011;26502;51.886;15.604;2023-05-07T20:01:16;4.30;;;3.40;;
40793;SDS011;26502;51.886;15.604;2023-05-07T20:06:22;3.60;;;3.10;;
40793;SDS011;26502;51.886;15.604;2023-05-07T20:11:28;3.40;;;3.10;;
40793;SDS011;26502;51.886;15.604;2023-05-07T20:16:34;6.30;;;3.50;;
40793;SDS011;26502;51.886;15.604;2023-05-07T20:21:40;6.30;;;3.20;;
40793;SDS011;26502;51.886;15.604;2023-05-07T20:26:46;4.40;;;3.60;;
40793;SDS011;26502;51.886;15.604;2023-05-07T20:31:52;6.90;;;3.70;;
40793;SDS011;26502;51.886;15.604;2023-05-07T20:36:58;3.90;;;3.30;;
40793;SDS011;26502;51.886;15.604;2023-05-07T20:42:05;5.10;;;3.40;;
40793;SDS011;26502;51.886;15.604;2023-05-07T20:47:11;7.30;;;5.00;;
40793;SDS011;26502;51.886;15.604;2023-05-07T20:52:17;4.30;;;3.40;;
40793;SDS011;26502;51.886;15.604;2023-05-07T20:57:23;4.90;;;4.10;;
40793;SDS011;26502;51.886;15.604;2023-05-07T21:02:29;4.00;;;3.60;;
40793;SDS011;26502;51.886;15.604;2023-05-07T21:07:35;7.00;;;4.10;;
40793;SDS011;26502;51.886;15.604;2023-05-07T21:12:41;4.50;;;3.40;;
40793;SDS011;26502;51.886;15.604;2023-05-07T21:17:47;5.20;;;4.00;;
40793;SDS011;26502;51.886;15.604;2023-05-07T21:22:53;4.90;;;3.90;;
40793;SDS011;26502;51.886;15.604;2023-05-07T21:27:59;5.50;;;3.70;;
40793;SDS011;26502;51.886;15.604;2023-05-07T21:33:07;5.40;;;3.80;;
40793;SDS011;26502;51.886;15.604;2023-05-07T21:38:13;7.60;;;3.80;;
40793;SDS011;26502;51.886;15.604;2023-05-07T21:43:20;5.70;;;4.00;;
40793;SDS011;26502;51.886;15.604;2023-05-07T21:48:26;6.60;;;4.10;;
40793;SDS011;26502;51.886;15.604;2023-05-07T21:53:32;5.70;;;3.90;;
40793;SDS011;26502;51.886;15.604;2023-05-07T21:58:38;4.90;;;3.90;;
40793;SDS011;26502;51.886;15.604;2023-05-07T22:03:44;6.70;;;4.30;;
40793;SDS011;26502;51.886;15.604;2023-05-07T22:08:50;5.10;;;4.30;;
40793;SDS011;26502;51.886;15.604;2023-05-07T22:13:56;4.60;;;3.50;;
40793;SDS011;26502;51.886;15.604;2023-05-07T22:19:02;6.40;;;4.40;;
40793;SDS011;26502;51.886;15.604;2023-05-07T22:24:08;5.40;;;4.00;;
40793;SDS011;26502;51.886;15.604;2023-05-07T22:29:14;7.80;;;4.50;;
40793;SDS011;26502;51.886;15.604;2023-05-07T22:34:20;4.40;;;3.90;;
40793;SDS011;26502;51.886;15.604;2023-05-07T22:39:26;5.70;;;3.60;;
40793;SDS011;26502;51.886;15.604;2023-05-07T22:44:36;5.20;;;3.60;;
40793;SDS011;26502;51.886;15.604;2023-05-07T22:49:42;4.30;;;3.90;;
40793;SDS011;26502;51.886;15.604;2023-05-07T22:54:48;5.80;;;3.90;;
40793;SDS011;26502;51.886;15.604;2023-05-07T22:59:54;6.00;;;4.00;;
40793;SDS011;26502;51.886;15.604;2023-05-07T23:05:00;4.90;;;4.10;;
40793;SDS011;26502;51.886;15.604;2023-05-07T23:10:07;6.30;;;4.80;;
40793;SDS011;26502;51.886;15.604;2023-05-07T23:15:13;5.20;;;4.20;;
40793;SDS011;26502;51.886;15.604;2023-05-07T23:20:20;7.00;;;4.20;;
40793;SDS011;26502;51.886;15.604;2023-05-07T23:25:26;5.30;;;4.60;;
40793;SDS011;26502;51.886;15.604;2023-05-07T23:30:32;5.90;;;4.30;;
40793;SDS011;26502;51.886;15.604;2023-05-07T23:35:38;7.40;;;4.00;;
40793;SDS011;26502;51.886;15.604;2023-05-07T23:40:44;5.40;;;4.10;;
40793;SDS011;26502;51.886;15.604;2023-05-07T23:45:50;6.50;;;3.90;;
40793;SDS011;26502;51.886;15.604;2023-05-07T23:50:56;4.80;;;4.30;;
40793;SDS011;26502;51.886;15.604;2023-05-07T23:56:02;6.10;;;4.20;;
